Temp: 18.3°C   Baro: 1015.6mb
  Wind: 4.9mph   Dir: SW (229°)
  Rain: 0.6mm (0.0mm/hr)
  Solar: 311W/m2  Hum: 63%
 
Bath Spa Weather Station Historical Data
Daily Summary for August 01, 2020 Units:  English    Metric   Both
Daily Weekly Monthly Yearly Custom
  High: Low: Average:
Temperature: 69.6 °F 56.1 °F 62.7 °F
Dew Point: 59.3 °F 49 °F 55.8 °F
Humidity: 90% 63.8% 79%
Wind Speed: 12.6mph 0mph 4.9mph
Wind Gust: 21mph - -
Wind- - WNW
Pressure: 30.05 in 29.92 in -
Precipitation: 0.02 in    
Historical Graphs
 
 
Tabular Data for August 01, 2020
Time Temperature Dew Point Pressure Wind Wind Speed Wind Gust Humidity Rainfall Rate (Hourly) solar
00:04 61.5 °F 57 °F 29.92 in West 2.7 mph 6 mph 85% 0.00 in 0 W/m2
00:09 61.4 °F 57 °F 29.92 in West 3.7 mph 9 mph 85.4% 0.00 in 0 W/m2
00:14 61.3 °F 57.2 °F 29.92 in West 3.6 mph 7 mph 86% 0.00 in 0 W/m2
00:19 61.2 °F 57 °F 29.92 in West 4.3 mph 8 mph 86% 0.00 in 0 W/m2
00:23 61.2 °F 57 °F 29.93 in WNW 3.7 mph 8 mph 86% 0.00 in 0 W/m2
00:29 61.2 °F 57 °F 29.93 in West 2.9 mph 6 mph 86% 0.00 in 0 W/m2
00:34 61.2 °F 57.1 °F 29.93 in West 3.6 mph 6 mph 86.6% 0.00 in 0 W/m2
00:39 61.2 °F 57.2 °F 29.93 in West 4.2 mph 9 mph 87% 0.00 in 0 W/m2
00:44 61 °F 57 °F 29.93 in WNW 3.9 mph 9 mph 87% 0.00 in 0 W/m2
00:49 61 °F 57 °F 29.93 in WNW 3.2 mph 7 mph 87% 0.00 in 0 W/m2
00:54 61 °F 57 °F 29.93 in WNW 2.9 mph 6 mph 87% 0.00 in 0 W/m2
00:59 61 °F 57.4 °F 29.93 in WNW 4.7 mph 7 mph 88% 0.00 in 0 W/m2
01:04 61 °F 57.4 °F 29.93 in WNW 3.8 mph 7 mph 88% 0.00 in 0 W/m2
01:09 61 °F 57.4 °F 29.94 in WNW 2.9 mph 6 mph 88% 0.00 in 0 W/m2
01:14 61 °F 57.4 °F 29.94 in West 4 mph 8 mph 88% 0.00 in 0 W/m2
01:19 61 °F 57.4 °F 29.94 in WNW 3.2 mph 7 mph 88% 0.00 in 0 W/m2
01:24 61 °F 57.4 °F 29.94 in West 3.3 mph 6 mph 88% 0.00 in 0 W/m2
01:29 61 °F 57.4 °F 29.94 in West 4.5 mph 7 mph 88% 0.00 in 0 W/m2
01:34 61.1 °F 57.5 °F 29.94 in West 3.7 mph 6 mph 88% 0.00 in 0 W/m2
01:39 61 °F 57.4 °F 29.94 in West 2.5 mph 7 mph 88% 0.00 in 0 W/m2
01:44 61 °F 57.4 °F 29.94 in West 3.7 mph 7 mph 88% 0.00 in 0 W/m2
01:49 60.9 °F 57.3 °F 29.94 in WNW 3.4 mph 8 mph 88% 0.00 in 0 W/m2
01:54 60.6 °F 57 °F 29.94 in NW 3.2 mph 6 mph 88% 0.00 in 0 W/m2
01:59 60.6 °F 57 °F 29.94 in WNW 1.2 mph 5 mph 88% 0.00 in 0 W/m2
02:04 60.5 °F 56.9 °F 29.94 in NW 3 mph 6 mph 88% 0.00 in 0 W/m2
02:09 60.4 °F 56.8 °F 29.94 in WNW 1.7 mph 5 mph 88% 0.00 in 0 W/m2
02:14 60.3 °F 56.7 °F 29.94 in NW 2.4 mph 5 mph 88% 0.00 in 0 W/m2
02:19 60.1 °F 56.7 °F 29.94 in NW 2.3 mph 4 mph 88.7% 0.00 in 0 W/m2
02:24 60.1 °F 56.6 °F 29.94 in NW 2 mph 5 mph 88.4% 0.00 in 0 W/m2
02:29 59.9 °F 56.7 °F 29.94 in NW 1.7 mph 4 mph 89% 0.00 in 0 W/m2
02:34 59.8 °F 56.6 °F 29.94 in NNW 2.2 mph 4 mph 89% 0.00 in 0 W/m2
02:39 59.7 °F 56.5 °F 29.94 in NNW 2 mph 4 mph 89% 0.00 in 0 W/m2
02:44 59.6 °F 56.4 °F 29.94 in NW 2.3 mph 4 mph 89% 0.00 in 0 W/m2
02:49 59.5 °F 56.3 °F 29.94 in NW 2.3 mph 4 mph 89% 0.00 in 0 W/m2
02:59 59.4 °F 56.1 °F 29.94 in NW 1 mph 4 mph 89% 0.00 in 0 W/m2
03:04 59.4 °F 56.1 °F 29.94 in Calm   2 mph 89% 0.00 in 0 W/m2
03:09 59.2 °F 55.9 °F 29.94 in Calm     89% 0.00 in 0 W/m2
03:14 59.2 °F 55.9 °F 29.94 in NW 0.2 mph 1 mph 89% 0.00 in 0 W/m2
03:19 59.2 °F 56.1 °F 29.94 in Calm     89.6% 0.00 in 0 W/m2
03:23 59.1 °F 56.1 °F 29.94 in NW 1.7 mph 3 mph 89.8% 0.00 in 0 W/m2
03:29 59 °F 56.1 °F 29.94 in NW 0.7 mph 3 mph 90% 0.00 in 0 W/m2
03:34 58.8 °F 55.8 °F 29.94 in NW 0.8 mph 3 mph 89.6% 0.00 in 0 W/m2
03:39 58.8 °F 55.7 °F 29.94 in NW 0.6 mph 2 mph 89.2% 0.00 in 0 W/m2
03:44 58.6 °F 55.4 °F 29.94 in NW 0.4 mph 3 mph 89% 0.00 in 0 W/m2
03:49 58.5 °F 55.2 °F 29.94 in NW 2.4 mph 4 mph 89% 0.00 in 0 W/m2
03:54 58.5 °F 55.2 °F 29.94 in NW 2.1 mph 5 mph 89% 0.00 in 0 W/m2
03:59 58.3 °F 55 °F 29.94 in NW 1.3 mph 5 mph 89% 0.00 in 0 W/m2
04:04 58.3 °F 55 °F 29.94 in NW 1.8 mph 3 mph 89% 0.00 in 0 W/m2
04:09 58.3 °F 55 °F 29.95 in NW 1.6 mph 4 mph 89% 0.00 in 0 W/m2
04:14 58.3 °F 55 °F 29.95 in NW 1.5 mph 3 mph 89% 0.00 in 0 W/m2
04:19 58.1 °F 54.9 °F 29.95 in NW 1.3 mph 3 mph 89% 0.00 in 0 W/m2
04:24 58.1 °F 54.9 °F 29.95 in NW 0.8 mph 3 mph 89% 0.00 in 0 W/m2
04:29 58.1 °F 54.9 °F 29.95 in NW 1.4 mph 4 mph 89% 0.00 in 0 W/m2
04:33 58.1 °F 54.9 °F 29.95 in NW 1.5 mph 3 mph 89% 0.00 in 0 W/m2
04:39 58.1 °F 54.9 °F 29.95 in NW 1.2 mph 3 mph 89% 0.00 in 0 W/m2
04:44 58.1 °F 54.9 °F 29.95 in NW 0.8 mph 3 mph 89% 0.00 in 0 W/m2
04:49 57.9 °F 54.9 °F 29.95 in NW 0.8 mph 2 mph 89.6% 0.00 in 0 W/m2
04:54 57.9 °F 54.9 °F 29.95 in NW 2.1 mph 4 mph 89.8% 0.00 in 0 W/m2
04:59 57.9 °F 54.8 °F 29.95 in NW 1.6 mph 4 mph 89.2% 0.00 in 0 W/m2
05:04 57.9 °F 54.8 °F 29.95 in NW 1.6 mph 3 mph 89.2% 0.00 in 0 W/m2
05:09 57.7 °F 54.9 °F 29.95 in NW 1.4 mph 4 mph 90% 0.00 in 0 W/m2
05:14 57.7 °F 54.9 °F 29.95 in NW 1 mph 4 mph 90% 0.00 in 0 W/m2
05:19 57.7 °F 54.9 °F 29.95 in NW 1.8 mph 4 mph 90% 0.00 in 0 W/m2
05:24 57.7 °F 54.9 °F 29.95 in NW 1.4 mph 3 mph 90% 0.00 in 0 W/m2
05:29 57.7 °F 54.9 °F 29.96 in NW 1.2 mph 4 mph 90% 0.00 in 0 W/m2
05:33 57.7 °F 54.9 °F 29.96 in NW 2.5 mph 4 mph 90% 0.00 in 0 W/m2
05:39 57.9 °F 55 °F 29.96 in NW 0.5 mph 3 mph 90% 0.00 in 0 W/m2
05:44 57.9 °F 55 °F 29.96 in NW 0.2 mph 3 mph 90% 0.00 in 5 W/m2
05:49 58.1 °F 55.2 °F 29.96 in WSW 0.4 mph 3 mph 90% 0.00 in 12 W/m2
05:54 58.3 °F 55.4 °F 29.96 in Calm   2 mph 90% 0.00 in 12 W/m2
05:59 58.5 °F 55.6 °F 29.96 in SW 0.6 mph 4 mph 90% 0.00 in 11 W/m2
06:04 58.5 °F 55.7 °F 29.96 in Calm     90% 0.00 in 14 W/m2
06:09 58.6 °F 55.8 °F 29.96 in Calm   2 mph 90% 0.00 in 18 W/m2
06:14 58.6 °F 55.7 °F 29.96 in Calm     90% 0.00 in 26 W/m2
06:19 58.6 °F 55.8 °F 29.96 in Calm     90% 0.00 in 40 W/m2
06:24 58.6 °F 55.8 °F 29.96 in Calm     90% 0.00 in 35 W/m2
06:29 58.8 °F 55.9 °F 29.96 in Calm     90% 0.00 in 32 W/m2
06:34 58.8 °F 55.9 °F 29.96 in Calm     90% 0.00 in 33 W/m2
06:39 58.9 °F 56 °F 29.96 in Calm     90% 0.00 in 28 W/m2
06:44 59.1 °F 56.2 °F 29.96 in Calm   2 mph 90% 0.00 in 46 W/m2
06:49 59.2 °F 56.3 °F 29.96 in Calm     89.8% 0.00 in 65 W/m2
06:53 59.4 °F 56.3 °F 29.96 in SW 0.5 mph 2 mph 89.3% 0.00 in 76 W/m2
06:59 59.5 °F 56.3 °F 29.96 in SW 2 mph 5 mph 89.2% 0.00 in 47 W/m2
07:04 59.5 °F 56.3 °F 29.96 in SW 0.2 mph 5 mph 89% 0.00 in 53 W/m2
07:09 59.7 °F 56.5 °F 29.96 in Calm   3 mph 89% 0.00 in 62 W/m2
07:14 60 °F 56.8 °F 29.96 in Calm     89% 0.00 in 79 W/m2
07:19 60.1 °F 56.8 °F 29.96 in Calm     89% 0.00 in 63 W/m2
07:24 60.3 °F 57 °F 29.96 in Calm     89% 0.00 in 53 W/m2
07:29 60.3 °F 57 °F 29.96 in Calm     89% 0.00 in 39 W/m2
07:33 60.4 °F 57.2 °F 29.96 in Calm   1 mph 89% 0.00 in 39 W/m2
07:39 60.6 °F 57 °F 29.96 in SW 1.8 mph 5 mph 88.2% 0.00 in 70 W/m2
07:44 60.8 °F 57.2 °F 29.96 in WSW 3.3 mph 7 mph 88% 0.00 in 74 W/m2
07:49 61 °F 57.4 °F 29.96 in Calm   3 mph 88% 0.00 in 72 W/m2
07:54 61.2 °F 57.6 °F 29.96 in West 1.8 mph 5 mph 88% 0.00 in 146 W/m2
07:59 61.2 °F 57.6 °F 29.96 in WNW 1.7 mph 5 mph 88% 0.00 in 218 W/m2
08:04 61.3 °F 57.6 °F 29.96 in West 2.2 mph 6 mph 87.8% 0.00 in 155 W/m2
08:09 61.6 °F 57.8 °F 29.96 in WSW 4 mph 8 mph 87.4% 0.00 in 156 W/m2
08:14 62 °F 58 °F 29.97 in SW 3.9 mph 8 mph 87% 0.00 in 176 W/m2
08:19 62 °F 57.7 °F 29.97 in SW 4.7 mph 8 mph 86.2% 0.00 in 149 W/m2
08:24 62.1 °F 57.8 °F 29.97 in SW 2.1 mph 6 mph 86% 0.00 in 149 W/m2
08:29 62.1 °F 57.8 °F 29.97 in SW 5.5 mph 10 mph 86% 0.00 in 134 W/m2
08:34 62.2 °F 57.8 °F 29.97 in SW 4.4 mph 8 mph 85.8% 0.00 in 169 W/m2
08:39 62.4 °F 57.9 °F 29.97 in WSW 3.3 mph 6 mph 85% 0.00 in 192 W/m2
08:44 62.6 °F 58.1 °F 29.97 in SW 5 mph 10 mph 85% 0.00 in 207 W/m2
08:49 62.4 °F 57.8 °F 29.97 in WSW 2.6 mph 9 mph 84.4% 0.00 in 141 W/m2
08:54 62.8 °F 58.2 °F 29.98 in SW 3.8 mph 8 mph 84.8% 0.00 in 135 W/m2
08:59 62.8 °F 57.9 °F 29.98 in SW 2.6 mph 6 mph 84% 0.00 in 142 W/m2
09:04 62.8 °F 57.9 °F 29.98 in WSW 3.9 mph 9 mph 84% 0.00 in 158 W/m2
09:09 63 °F 58.1 °F 29.98 in SW 3.3 mph 8 mph 84% 0.00 in 144 W/m2
09:14 63 °F 58.1 °F 29.98 in SW 4 mph 9 mph 84% 0.00 in 204 W/m2
09:19 63.1 °F 58.3 °F 29.98 in WSW 4.9 mph 7 mph 84% 0.00 in 257 W/m2
09:24 63.3 °F 58.4 °F 29.98 in WSW 4.6 mph 7 mph 83.8% 0.00 in 408 W/m2
09:29 63.8 °F 58.6 °F 29.98 in SW 1.8 mph 6 mph 83% 0.00 in 274 W/m2
09:34 64 °F 58.6 °F 29.98 in SSW 3.3 mph 8 mph 82.2% 0.00 in 267 W/m2
09:39 64.2 °F 58.5 °F 29.98 in SW 4.2 mph 7 mph 81.8% 0.00 in 281 W/m2
09:44 64.7 °F 59 °F 29.98 in SW 4.1 mph 9 mph 81.6% 0.00 in 596 W/m2
09:49 65.3 °F 59 °F 29.98 in SW 4.7 mph 9 mph 80% 0.00 in 707 W/m2
09:54 65.6 °F 58.9 °F 29.98 in SW 4.9 mph 12 mph 78.8% 0.00 in 842 W/m2
09:59 65.9 °F 59 °F 29.98 in WSW 5 mph 10 mph 78.4% 0.00 in 362 W/m2
10:04 65.6 °F 58.6 °F 29.98 in WSW 4.9 mph 10 mph 78% 0.00 in 218 W/m2
10:09 65.5 °F 58.5 °F 29.98 in West 3.6 mph 10 mph 78% 0.00 in 258 W/m2
10:14 65.6 °F 58.8 °F 29.98 in WSW 3.7 mph 8 mph 78.8% 0.00 in 244 W/m2
10:18 65.7 °F 58.7 °F 29.98 in SW 5.8 mph 9 mph 78.3% 0.00 in 258 W/m2
10:24 65.5 °F 58.6 °F 29.98 in SW 7.4 mph 12 mph 78.4% 0.00 in 315 W/m2
10:29 65.3 °F 58.8 °F 29.98 in WSW 4.4 mph 12 mph 79.5% 0.00 in 373 W/m2
10:34 65.5 °F 59.2 °F 29.99 in WSW 5.9 mph 11 mph 80% 0.00 in 294 W/m2
10:39 64.8 °F 58.7 °F 30.00 in WNW 6.4 mph 15 mph 80.6% 0.01 in 97 W/m2
10:44 63 °F 57.9 °F 30.00 in WNW 7.4 mph 11 mph 83.6% 0.02 in 135 W/m2
10:49 62.2 °F 57.9 °F 30.00 in WNW 6 mph 9 mph 86.2% 0.02 in 271 W/m2
10:54 62.2 °F 58.4 °F 30.00 in West 3.9 mph 8 mph 87.6% 0.02 in 355 W/m2
10:59 62.3 °F 59 °F 30.00 in West 4.6 mph 9 mph 88.6% 0.02 in 364 W/m2
11:04 62.4 °F 59.2 °F 30.00 in WNW 7.2 mph 10 mph 89% 0.02 in 287 W/m2
11:09 62.5 °F 59.3 °F 30.00 in NW 5.5 mph 16 mph 89% 0.02 in 294 W/m2
11:14 62.6 °F 59 °F 30.00 in WNW 6.1 mph 16 mph 88% 0.02 in 329 W/m2
11:19 62.8 °F 58.9 °F 30.00 in West 6.2 mph 11 mph 87.2% 0.02 in 327 W/m2
11:24 63.2 °F 59 °F 30.00 in WNW 4.9 mph 11 mph 86% 0.02 in 334 W/m2
11:29 63.7 °F 59.2 °F 30.00 in WNW 6.2 mph 11 mph 85.4% 0.02 in 411 W/m2
11:34 63.9 °F 58.9 °F 30.00 in West 9.6 mph 15 mph 83.6% 0.02 in 350 W/m2
11:39 64.1 °F 58.4 °F 30.00 in West 8.2 mph 12 mph 81.6% 0.02 in 450 W/m2
11:44 64.6 °F 58 °F 30.00 in West 6.2 mph 14 mph 79.4% 0.01 in 346 W/m2
11:49 64.8 °F 58 °F 30.00 in WNW 7 mph 11 mph 78.6% 0.00 in 552 W/m2
11:54 65 °F 57.8 °F 30.00 in West 6.6 mph 11 mph 77.4% 0.00 in 338 W/m2
11:59 65.5 °F 57.7 °F 30.00 in WNW 6.4 mph 11 mph 76% 0.00 in 533 W/m2
12:04 66.3 °F 57.5 °F 30.00 in West 8.2 mph 14 mph 73.2% 0.00 in 861 W/m2
12:09 66.9 °F 57 °F 30.00 in West 8 mph 18 mph 70.4% 0.00 in 942 W/m2
12:14 67.5 °F 57.3 °F 30.00 in WNW 9 mph 18 mph 69.8% 0.00 in 946 W/m2
12:19 67.3 °F 56.8 °F 30.00 in West 8.3 mph 15 mph 68.8% 0.00 in 946 W/m2
12:24 67.8 °F 57.1 °F 30.00 in West 8.6 mph 17 mph 68.6% 0.00 in 875 W/m2
12:29 68.3 °F 57.4 °F 30.00 in WNW 8 mph 15 mph 68% 0.00 in 946 W/m2
12:33 68.3 °F 57.3 °F 30.00 in WNW 12 mph 17 mph 67.8% 0.00 in 1041 W/m2
12:39 68 °F 56.4 °F 30.00 in WNW 7.8 mph 17 mph 66.4% 0.00 in 482 W/m2
12:44 67.7 °F 56.7 °F 30.00 in WNW 5.2 mph 15 mph 68% 0.00 in 905 W/m2
12:49 67.9 °F 56.3 °F 30.00 in WNW 8.6 mph 17 mph 66.4% 0.00 in 262 W/m2
12:54 67.7 °F 56.4 °F 30.00 in WNW 8.2 mph 15 mph 67.2% 0.00 in 378 W/m2
12:59 68 °F 57.1 °F 30.00 in WNW 6.6 mph 14 mph 68% 0.00 in 691 W/m2
13:03 69.2 °F 58.1 °F 30.00 in West 9.2 mph 14 mph 67.8% 0.00 in 1248 W/m2
13:09 68.7 °F 57.9 °F 30.00 in WNW 7.8 mph 15 mph 68.6% 0.00 in 601 W/m2
13:14 68 °F 58.2 °F 30.00 in NW 8.8 mph 18 mph 70.8% 0.00 in 499 W/m2
13:19 67.4 °F 57.9 °F 30.00 in WNW 11.5 mph 18 mph 71.8% 0.00 in 536 W/m2
13:24 67.5 °F 58.1 °F 30.00 in West 9.2 mph 16 mph 71.8% 0.00 in 1069 W/m2
13:29 68.2 °F 58.6 °F 30.00 in West 10.8 mph 16 mph 71.2% 0.00 in 1113 W/m2
13:34 68.5 °F 59.2 °F 30.00 in West 10.5 mph 14 mph 72% 0.00 in 854 W/m2
13:39 68.3 °F 58.5 °F 30.01 in WNW 6.7 mph 15 mph 70.8% 0.00 in 628 W/m2
13:44 68.7 °F 58.1 °F 30.01 in WNW 8.6 mph 20 mph 69% 0.00 in 1130 W/m2
13:49 68.3 °F 56.8 °F 30.01 in WNW 9.9 mph 20 mph 66.8% 0.00 in 1130 W/m2
13:54 68.5 °F 56.9 °F 30.01 in WNW 8.8 mph 17 mph 66.4% 0.00 in 976 W/m2
13:59 68.3 °F 57.1 °F 30.01 in West 6.4 mph 17 mph 67.2% 0.00 in 846 W/m2
14:04 68.4 °F 57.4 °F 30.01 in West 10 mph 18 mph 68% 0.00 in 858 W/m2
14:09 68.5 °F 57.9 °F 30.00 in WNW 9.2 mph 15 mph 69% 0.00 in 990 W/m2
14:14 69.6 °F 58.2 °F 30.00 in West 7.5 mph 21 mph 67.2% 0.00 in 990 W/m2
14:19 69.1 °F 57.2 °F 30.01 in WNW 9.4 mph 21 mph 66% 0.00 in 932 W/m2
14:24 68.5 °F 56.7 °F 30.01 in WNW 11.4 mph 17 mph 66.2% 0.00 in 932 W/m2
14:29 68.4 °F 56.8 °F 30.01 in WNW 7.6 mph 14 mph 66.6% 0.00 in 791 W/m2
14:34 68.5 °F 56.8 °F 30.01 in WNW 7.2 mph 15 mph 66.4% 0.00 in 895 W/m2
14:39 68.9 °F 56.5 °F 30.01 in West 10.3 mph 20 mph 64.6% 0.00 in 840 W/m2
14:44 68.5 °F 56.3 °F 30.01 in WNW 7.8 mph 20 mph 65% 0.00 in 831 W/m2
14:49 68.4 °F 56.4 °F 30.01 in WNW 10.6 mph 18 mph 65.6% 0.00 in 847 W/m2
14:54 68.7 °F 56.7 °F 30.01 in West 12.2 mph 16 mph 65.6% 0.00 in 840 W/m2
14:59 68.2 °F 56.5 °F 30.01 in West 10.2 mph 15 mph 66.4% 0.00 in 793 W/m2
15:04 68.6 °F 57.2 °F 30.01 in WNW 8 mph 15 mph 66.8% 0.00 in 851 W/m2
15:09 69.3 °F 57 °F 30.01 in West 9.2 mph 16 mph 65% 0.00 in 789 W/m2
15:14 69.1 °F 56.3 °F 30.01 in West 9.2 mph 17 mph 63.8% 0.00 in 756 W/m2
15:19 68.7 °F 56.5 °F 30.01 in WNW 9.8 mph 16 mph 65% 0.00 in 805 W/m2
15:24 68.2 °F 56.3 °F 30.01 in WNW 8.6 mph 16 mph 66% 0.00 in 805 W/m2
15:29 68.6 °F 56.4 °F 30.01 in WSW 8 mph 17 mph 65.2% 0.00 in 786 W/m2
15:34 68.9 °F 56.5 °F 30.01 in West 9.2 mph 17 mph 64.8% 0.00 in 761 W/m2
15:39 68.6 °F 56.4 °F 30.01 in West 11.4 mph 21 mph 65.2% 0.00 in 751 W/m2
15:43 68.3 °F 56.1 °F 30.01 in West 9.3 mph 21 mph 65.3% 0.00 in 721 W/m2
15:49 68.2 °F 56.1 °F 30.01 in West 9.9 mph 19 mph 65.4% 0.00 in 712 W/m2
15:54 68.6 °F 56.4 °F 30.01 in West 8.4 mph 17 mph 65% 0.00 in 686 W/m2
15:59 68.9 °F 56.3 °F 30.01 in West 6.4 mph 16 mph 64.2% 0.00 in 721 W/m2
16:04 69 °F 56.7 °F 30.01 in West 7.4 mph 13 mph 64.8% 0.00 in 671 W/m2
16:09 68.9 °F 56.8 °F 30.01 in West 9.2 mph 17 mph 65.4% 0.00 in 701 W/m2
16:14 68.9 °F 57.1 °F 30.01 in NW 7 mph 14 mph 66.2% 0.00 in 701 W/m2
16:19 68.5 °F 56.9 °F 30.01 in WNW 10.2 mph 18 mph 66.4% 0.00 in 679 W/m2
16:24 68.4 °F 56.5 °F 30.01 in WNW 11.2 mph 18 mph 66% 0.00 in 686 W/m2
16:29 68.3 °F 56.7 °F 30.01 in NW 8.4 mph 18 mph 66.6% 0.00 in 642 W/m2
16:34 68.3 °F 56.5 °F 30.01 in WNW 10 mph 19 mph 66.3% 0.00 in 543 W/m2
16:39 67.4 °F 56.3 °F 30.01 in West 9.8 mph 19 mph 67.6% 0.00 in 517 W/m2
16:44 67.5 °F 56.5 °F 30.01 in WNW 10.7 mph 18 mph 68% 0.00 in 596 W/m2
16:49 67.6 °F 57 °F 30.01 in WNW 8.8 mph 17 mph 69% 0.00 in 612 W/m2
16:54 68.1 °F 57.1 °F 30.01 in NW 9.8 mph 14 mph 68% 0.00 in 585 W/m2
16:59 67.7 °F 56.7 °F 30.01 in WNW 9.6 mph 18 mph 67.8% 0.00 in 577 W/m2
17:04 67.6 °F 56.6 °F 30.01 in NW 9.2 mph 17 mph 68% 0.00 in 547 W/m2
17:09 67.7 °F 56.5 °F 30.01 in WNW 7.4 mph 17 mph 67.4% 0.00 in 536 W/m2
17:14 67.7 °F 56.3 °F 30.01 in WNW 8.8 mph 14 mph 67% 0.00 in 524 W/m2
17:19 67.7 °F 56.5 °F 30.01 in West 10 mph 17 mph 67.2% 0.00 in 522 W/m2
17:24 67.3 °F 55.8 °F 30.01 in WNW 8.2 mph 17 mph 66.6% 0.00 in 494 W/m2
17:29 66.9 °F 55.6 °F 30.01 in WNW 12.6 mph 19 mph 66.8% 0.00 in 485 W/m2
17:34 67 °F 55.6 °F 30.02 in WNW 7.3 mph 19 mph 66.6% 0.00 in 471 W/m2
17:39 67.2 °F 55.8 °F 30.02 in West 8.2 mph 16 mph 66.8% 0.00 in 462 W/m2
17:44 67.1 °F 55.6 °F 30.01 in WNW 9.8 mph 17 mph 66.8% 0.00 in 443 W/m2
17:49 66.8 °F 55.5 °F 30.01 in WNW 9 mph 15 mph 67% 0.00 in 431 W/m2
17:54 66.8 °F 55.4 °F 30.01 in WNW 10.8 mph 17 mph 66.6% 0.00 in 417 W/m2
17:59 66.6 °F 55.2 °F 30.01 in WNW 9.6 mph 15 mph 67% 0.00 in 410 W/m2
18:04 66.7 °F 55.4 °F 30.01 in West 9 mph 16 mph 67% 0.00 in 392 W/m2
18:09 66.5 °F 55.2 °F 30.01 in West 8.8 mph 16 mph 67% 0.00 in 380 W/m2
18:14 66.4 °F 55 °F 30.01 in WNW 9.4 mph 18 mph 67% 0.00 in 371 W/m2
18:19 66.4 °F 55.4 °F 30.02 in West 7.6 mph 18 mph 67.6% 0.00 in 350 W/m2
18:24 66.2 °F 54.9 °F 30.02 in WNW 8.6 mph 15 mph 67% 0.00 in 345 W/m2
18:29 66.5 °F 55.1 °F 30.02 in West 9 mph 15 mph 67% 0.00 in 330 W/m2
18:34 66.2 °F 54.6 °F 30.01 in WNW 9.2 mph 18 mph 66.5% 0.00 in 311 W/m2
18:39 65.8 °F 54.2 °F 30.02 in West 8.8 mph 18 mph 66.4% 0.00 in 301 W/m2
18:44 66.1 °F 54.8 °F 30.01 in WNW 5.6 mph 11 mph 67% 0.00 in 285 W/m2
18:49 65.8 °F 54.1 °F 30.01 in WNW 7.4 mph 18 mph 66% 0.00 in 271 W/m2
18:54 65.5 °F 53.8 °F 30.01 in West 9 mph 18 mph 66% 0.00 in 260 W/m2
18:59 65.5 °F 54 °F 30.01 in West 7.4 mph 13 mph 66.4% 0.00 in 244 W/m2
19:04 65.7 °F 54.1 °F 30.02 in West 11 mph 13 mph 66.5% 0.00 in 236 W/m2
19:09 65.4 °F 54.2 °F 30.02 in West 6.5 mph 14 mph 67% 0.00 in 223 W/m2
19:14 65.2 °F 54.1 °F 30.02 in WNW 7.5 mph 17 mph 67% 0.00 in 207 W/m2
19:19 64.9 °F 53.8 °F 30.01 in WNW 9.8 mph 14 mph 67% 0.00 in 192 W/m2
19:24 64.6 °F 53.8 °F 30.01 in WNW 10 mph 15 mph 68% 0.00 in 179 W/m2
19:29 64.5 °F 53.7 °F 30.02 in WNW 8 mph 17 mph 68% 0.00 in 165 W/m2
19:34 64.3 °F 53.5 °F 30.02 in West 11.2 mph 16 mph 68% 0.00 in 149 W/m2
19:39 63.8 °F 53 °F 30.02 in West 8.8 mph 17 mph 68% 0.00 in 132 W/m2
19:44 63.7 °F 53.2 °F 30.02 in West 8.6 mph 17 mph 69% 0.00 in 120 W/m2
19:49 63.5 °F 53.1 °F 30.02 in West 8.6 mph 16 mph 69% 0.00 in 102 W/m2
19:54 63.1 °F 52.9 °F 30.02 in WNW 8.6 mph 16 mph 69% 0.00 in 90 W/m2
19:59 63.2 °F 53.3 °F 30.02 in WNW 6.3 mph 16 mph 69.8% 0.00 in 76 W/m2
20:04 63.1 °F 53.2 °F 30.02 in West 6.6 mph 16 mph 70% 0.00 in 62 W/m2
20:09 62.8 °F 53.1 °F 30.02 in West 7 mph 12 mph 70.6% 0.00 in 53 W/m2
20:14 62.4 °F 52.6 °F 30.02 in WNW 8 mph 15 mph 70.2% 0.00 in 40 W/m2
20:19 62.1 °F 52.8 °F 30.03 in WNW 7.5 mph 15 mph 71.5% 0.00 in 32 W/m2
20:24 61.9 °F 52.8 °F 30.03 in West 7.1 mph 12 mph 72.4% 0.00 in 25 W/m2
20:29 61.5 °F 53 °F 30.03 in West 5.9 mph 10 mph 73.6% 0.00 in 18 W/m2
20:34 61.3 °F 53.1 °F 30.03 in WNW 4.2 mph 10 mph 74% 0.00 in 16 W/m2
20:39 61.2 °F 53.2 °F 30.03 in WNW 2 mph 6 mph 75% 0.00 in 12 W/m2
20:44 61.1 °F 53.3 °F 30.03 in WNW 3.7 mph 7 mph 75.4% 0.00 in 11 W/m2
20:49 60.8 °F 53.2 °F 30.03 in WNW 3.5 mph 10 mph 76% 0.00 in 7 W/m2
20:54 60.5 °F 53 °F 30.03 in West 5.4 mph 9 mph 76% 0.00 in 5 W/m2
20:59 60.3 °F 52.8 °F 30.03 in WNW 3.3 mph 9 mph 76% 0.00 in 0 W/m2
21:04 60.2 °F 53 °F 30.03 in NW 4.1 mph 8 mph 77% 0.00 in 0 W/m2
21:09 60 °F 52.8 °F 30.03 in West 4 mph 9 mph 77% 0.00 in 0 W/m2
21:14 59.7 °F 52.5 °F 30.03 in West 5.5 mph 10 mph 77% 0.00 in 0 W/m2
21:19 59.5 °F 52.5 °F 30.04 in West 5.6 mph 10 mph 77.6% 0.00 in 0 W/m2
21:24 59.4 °F 52.5 °F 30.04 in WNW 2.9 mph 9 mph 78% 0.00 in 0 W/m2
21:29 59.3 °F 52.4 °F 30.04 in WNW 2.5 mph 7 mph 78% 0.00 in 0 W/m2
21:34 59.1 °F 52.5 °F 30.04 in West 3.1 mph 7 mph 78.6% 0.00 in 0 W/m2
21:39 58.9 °F 52.4 °F 30.04 in WNW 5 mph 8 mph 79% 0.00 in 0 W/m2
21:44 58.7 °F 52.2 °F 30.04 in WNW 2.3 mph 7 mph 79% 0.00 in 0 W/m2
21:49 58.6 °F 52.2 °F 30.04 in WNW 5.4 mph 9 mph 79% 0.00 in 0 W/m2
21:54 58.6 °F 52.2 °F 30.04 in WNW 3 mph 9 mph 79% 0.00 in 0 W/m2
21:59 58.6 °F 52.1 °F 30.05 in WNW 3.3 mph 8 mph 79% 0.00 in 0 W/m2
22:04 58.5 °F 52 °F 30.04 in WNW 2.5 mph 7 mph 79% 0.00 in 0 W/m2
22:09 58.3 °F 51.8 °F 30.05 in WNW 3.7 mph 7 mph 79% 0.00 in 0 W/m2
22:14 58.1 °F 51.7 °F 30.05 in WNW 3.2 mph 6 mph 79.2% 0.00 in 0 W/m2
22:19 57.8 °F 51.4 °F 30.05 in WNW 3.6 mph 7 mph 79.2% 0.00 in 0 W/m2
22:24 57.7 °F 51.3 °F 30.05 in WNW 2.7 mph 7 mph 79% 0.00 in 0 W/m2
22:29 57.6 °F 51.1 °F 30.05 in WNW 1.9 mph 4 mph 79% 0.00 in 0 W/m2
22:34 57.4 °F 50.9 °F 30.05 in WNW 3.2 mph 7 mph 79% 0.00 in 0 W/m2
22:39 57.4 °F 50.9 °F 30.05 in WNW 3.5 mph 6 mph 79% 0.00 in 0 W/m2
22:44 57.2 °F 50.7 °F 30.05 in WNW 2.8 mph 5 mph 79% 0.00 in 0 W/m2
22:49 57 °F 50.5 °F 30.05 in WNW 2.5 mph 5 mph 79% 0.00 in 0 W/m2
22:54 56.8 °F 50.4 °F 30.05 in WNW 3.1 mph 6 mph 79% 0.00 in 0 W/m2
22:59 56.8 °F 50 °F 30.05 in West 2.6 mph 7 mph 78.2% 0.00 in 0 W/m2
23:04 56.7 °F 49.8 °F 30.05 in West 3.1 mph 5 mph 78% 0.00 in 0 W/m2
23:08 56.5 °F 49.6 °F 30.05 in WNW 2.2 mph 5 mph 78% 0.00 in 0 W/m2
23:14 56.5 °F 49.6 °F 30.05 in WNW 2.1 mph 6 mph 78% 0.00 in 0 W/m2
23:19 56.5 °F 49.6 °F 30.05 in WNW 2.2 mph 6 mph 78% 0.00 in 0 W/m2
23:24 56.5 °F 49.5 °F 30.04 in WNW 1.2 mph 3 mph 77.8% 0.00 in 0 W/m2
23:29 56.5 °F 49.3 °F 30.05 in WNW 2.1 mph 4 mph 77% 0.00 in 0 W/m2
23:34 56.3 °F 49.1 °F 30.04 in WNW 2.4 mph 3 mph 77% 0.00 in 0 W/m2
23:39 56.2 °F 49 °F 30.04 in WNW 2.2 mph 5 mph 77% 0.00 in 0 W/m2
23:44 56.1 °F 49.1 °F 30.04 in WNW 2.4 mph 5 mph 77.6% 0.00 in 0 W/m2
23:49 56.1 °F 49.3 °F 30.05 in WNW 2 mph 4 mph 78% 0.00 in 0 W/m2
23:54 56.1 °F 49.3 °F 30.05 in WNW 0.8 mph 4 mph 78% 0.00 in 0 W/m2
23:59 56.1 °F 49.3 °F 30.05 in WNW 2.2 mph 5 mph 78% 0.00 in 0 W/m2
Bath Spa Weather
Compliments of Weather Underground - 2 mb